Terminal Aerodrome Forecast
Issued by NWS

Current Version | Previous Version | Graphics & Text | Print | Product List | Glossary On
Versions: 1 2 3 4 5 6 7 8 9 10 11 12 13 14 15 16 17 18 19 20 21
961
FTUS41 KRLX 221120
TAFCKB
TAF
KCKB 221120Z 2212/2312 00000KT 5SM BR SCT060
     FM221300 34004KT P6SM SCT060
     FM222300 00000KT P6SM SKC
     FM230700 00000KT 5SM BR SKC
     FM231000 00000KT 1SM BR BKN001
     FM231100 00000KT 1/2SM FG BKN001=

USA.gov is the U.S. government's official web portal to all federal, state and local government web resources and services.